Time;durP1;ratioP1;P1;durP2;ratioP2;P2;SDS_P1;SDS_P2;PMS_P1;PMS_P2;Temp;Humidity;BMP_temperature;BMP_pressure;BME280_temperature;BME280_humidity;BME280_pressure;Samples;Min_cycle;Max_cycle;Signal;HPM_P1;HPM_P2
2022/01/20 00:01:50;;;;;;;22.23;2.95;;;3.80;99.90;;;;;;12387299;28;20082;-85
2022/01/20 00:26:49;;;;;;;23.60;3.08;;;3.70;99.90;;;;;;12423591;28;20053;-84
2022/01/20 00:38:56;;;;;;;22.70;3.05;;;3.50;99.90;;;;;;12405361;28;20081;-86
2022/01/20 00:44:58;;;;;;;30.15;3.58;;;3.50;99.90;;;;;;12395369;28;20077;-86
2022/01/20 00:51:00;;;;;;;20.60;3.15;;;3.40;99.90;;;;;;12404284;28;21075;-85
2022/01/20 00:57:03;;;;;;;26.40;3.10;;;3.40;99.90;;;;;;12427340;28;20069;-85
2022/01/20 01:03:05;;;;;;;18.70;4.30;;;3.40;99.90;;;;;;12413462;28;20043;-84
2022/01/20 01:09:07;;;;;;;26.60;3.25;;;3.50;99.90;;;;;;12414656;28;20054;-85
2022/01/20 01:15:17;;;;;;;26.08;2.70;;;3.50;99.90;;;;;;12395343;28;20169;-85
2022/01/20 01:21:40;;;;;;;26.40;3.03;;;3.50;99.90;;;;;;12406016;28;20197;-85
2022/01/20 01:27:44;;;;;;;30.40;3.55;;;3.50;99.90;;;;;;12386376;28;20527;-85
2022/01/20 01:33:54;;;;;;;26.23;3.47;;;3.60;99.90;;;;;;12401791;28;20100;-86
2022/01/20 01:39:56;;;;;;;23.05;3.65;;;3.50;99.90;;;;;;12390167;28;20043;-84
2022/01/20 01:46:12;;;;;;;30.48;3.20;;;3.40;99.90;;;;;;12402618;28;20054;-85
2022/01/20 01:52:14;;;;;;;24.67;3.73;;;3.40;99.90;;;;;;12391379;28;20057;-85
2022/01/20 01:58:17;;;;;;;24.70;3.05;;;3.50;99.90;;;;;;12404354;28;20069;-86
2022/01/20 02:04:21;;;;;;;25.42;2.95;;;3.50;99.90;;;;;;12386812;28;20054;-85
2022/01/20 02:23:05;;;;;;;20.92;2.67;;;3.60;99.90;;;;;;12394561;28;20073;-86
2022/01/20 02:29:07;;;;;;;18.90;2.30;;;3.50;99.90;;;;;;12397598;28;20080;-85
2022/01/20 02:35:10;;;;;;;14.50;2.90;;;3.50;99.90;;;;;;12391893;28;20054;-86
2022/01/20 02:47:33;;;;;;;17.40;3.33;;;3.40;99.90;;;;;;12388733;28;20581;-86
2022/01/20 03:01:02;;;;;;;18.55;2.65;;;3.40;99.90;;;;;;12397704;28;20049;-87
2022/01/20 03:07:05;;;;;;;20.67;3.30;;;3.40;99.90;;;;;;12379787;28;20123;-86
2022/01/20 03:13:07;;;;;;;15.93;2.90;;;3.40;99.90;;;;;;12390287;28;20056;-87
2022/01/20 03:19:09;;;;;;;13.55;2.53;;;3.40;99.90;;;;;;12380674;28;20128;-86
2022/01/20 03:25:11;;;;;;;14.98;2.80;;;3.50;99.90;;;;;;12397814;28;20046;-86
2022/01/20 03:31:13;;;;;;;17.50;2.10;;;3.50;99.90;;;;;;12399003;28;20054;-85
2022/01/20 03:37:16;;;;;;;15.10;2.20;;;3.60;99.90;;;;;;12401721;28;20057;-86
2022/01/20 03:43:18;;;;;;;14.38;2.35;;;3.60;99.90;;;;;;12389908;28;20461;-87
2022/01/20 03:55:28;;;;;;;9.93;2.15;;;3.50;99.90;;;;;;12394050;28;20499;-88
2022/01/20 04:01:31;;;;;;;6.50;1.60;;;3.40;99.90;;;;;;12372726;28;20559;-87
2022/01/20 04:07:33;;;;;;;10.05;1.55;;;3.30;99.90;;;;;;12373177;28;20483;-87
2022/01/20 04:13:36;;;;;;;7.35;1.50;;;3.30;99.90;;;;;;12368714;28;20061;-88
2022/01/20 04:19:37;;;;;;;7.53;0.70;;;3.30;99.90;;;;;;12379198;28;20141;-86
2022/01/20 04:25:39;;;;;;;8.40;1.40;;;3.30;99.90;;;;;;12390148;28;20046;-89
2022/01/20 04:31:42;;;;;;;7.60;0.80;;;3.20;99.90;;;;;;12386166;28;20069;-87
2022/01/20 04:37:44;;;;;;;10.52;1.02;;;3.10;99.90;;;;;;12401490;28;20034;-91
2022/01/20 04:43:47;;;;;;;6.10;1.17;;;2.90;99.90;;;;;;12399849;28;20129;-87
2022/01/20 05:02:30;;;;;;;7.35;0.98;;;2.70;99.90;;;;;;12390278;28;20111;-86
2022/01/20 05:08:32;;;;;;;6.70;1.23;;;2.60;99.90;;;;;;12385323;28;20082;-87
2022/01/20 05:14:34;;;;;;;9.45;1.15;;;2.50;99.90;;;;;;12379456;28;20136;-87
2022/01/20 05:20:37;;;;;;;11.50;2.30;;;2.50;99.90;;;;;;12374108;28;20057;-88
2022/01/20 05:26:39;;;;;;;15.55;1.60;;;2.60;99.90;;;;;;12380156;28;20094;-86
2022/01/20 05:32:41;;;;;;;12.20;1.60;;;2.40;99.90;;;;;;12372881;28;20049;-87
2022/01/20 05:38:43;;;;;;;14.85;2.45;;;2.50;99.90;;;;;;12385870;28;20057;-85
2022/01/20 05:44:49;;;;;;;14.88;2.30;;;2.50;99.90;;;;;;12377544;28;20073;-86
2022/01/20 05:50:51;;;;;;;21.10;2.10;;;2.50;99.90;;;;;;12391161;28;20076;-88
2022/01/20 05:56:53;;;;;;;15.35;3.55;;;2.40;99.90;;;;;;12388496;28;20129;-86
2022/01/20 06:09:16;;;;;;;13.43;1.98;;;2.10;99.90;;;;;;12409945;28;20498;-86
2022/01/20 06:15:18;;;;;;;17.50;3.55;;;2.10;99.90;;;;;;12387807;28;20046;-86
2022/01/20 06:21:20;;;;;;;17.67;2.53;;;2.10;99.90;;;;;;12396441;28;20053;-86
2022/01/20 06:27:22;;;;;;;18.08;2.08;;;2.10;99.90;;;;;;12401539;28;20092;-86
2022/01/20 06:33:24;;;;;;;17.95;2.55;;;2.10;99.90;;;;;;12394141;28;20039;-86
2022/01/20 06:39:25;;;;;;;18.83;3.20;;;2.00;99.90;;;;;;12390908;28;20692;-86
2022/01/20 06:45:27;;;;;;;15.88;2.15;;;1.90;99.90;;;;;;12386597;28;20088;-86
2022/01/20 06:51:30;;;;;;;13.13;2.28;;;2.00;99.90;;;;;;12380681;28;20045;-86
2022/01/20 06:57:34;;;;;;;19.42;2.53;;;2.10;99.90;;;;;;12396309;28;20047;-86
2022/01/20 07:03:36;;;;;;;12.35;2.30;;;2.10;99.90;;;;;;12381825;28;20529;-84
2022/01/20 07:09:39;;;;;;;15.65;2.25;;;2.10;99.90;;;;;;12388734;28;20093;-86
2022/01/20 07:15:41;;;;;;;17.40;1.98;;;2.10;99.90;;;;;;12382282;28;20152;-86
2022/01/20 07:21:43;;;;;;;18.88;2.65;;;2.00;99.90;;;;;;12391537;28;20050;-85
2022/01/20 07:27:45;;;;;;;18.98;2.70;;;2.10;99.90;;;;;;12395788;28;20447;-86
2022/01/20 07:34:04;;;;;;;17.52;2.92;;;2.10;99.90;;;;;;12383501;28;20068;-87
2022/01/20 07:40:06;;;;;;;14.85;1.98;;;2.00;99.90;;;;;;12373741;28;21219;-87
2022/01/20 07:46:09;;;;;;;19.13;2.42;;;2.00;99.90;;;;;;12378829;28;20495;-87
2022/01/20 07:52:12;;;;;;;16.85;2.30;;;2.10;99.90;;;;;;12387550;28;20106;-86
2022/01/20 07:58:14;;;;;;;14.02;2.80;;;1.90;99.90;;;;;;12397796;28;20138;-86
2022/01/20 08:04:16;;;;;;;19.77;2.28;;;2.00;99.90;;;;;;12338968;28;20133;-85
2022/01/20 08:10:18;;;;;;;19.33;2.35;;;2.00;99.90;;;;;;12333192;28;20057;-86
2022/01/20 08:16:20;;;;;;;17.00;2.30;;;1.90;99.90;;;;;;12334624;28;20058;-86
2022/01/20 08:22:22;;;;;;;22.90;2.58;;;1.90;99.90;;;;;;12332810;28;20046;-85
2022/01/20 08:28:36;;;;;;;13.38;2.78;;;1.90;99.90;;;;;;12331992;28;20474;-85
2022/01/20 08:34:38;;;;;;;16.50;2.15;;;2.00;99.90;;;;;;12317634;28;20051;-85
2022/01/20 08:40:41;;;;;;;19.55;2.67;;;1.90;99.90;;;;;;12315133;28;20058;-87
2022/01/20 08:46:43;;;;;;;18.23;2.10;;;1.80;99.90;;;;;;12307683;28;20061;-87
2022/01/20 08:52:45;;;;;;;16.73;1.67;;;1.90;99.90;;;;;;12333191;28;20070;-85
2022/01/20 08:58:48;;;;;;;14.50;2.17;;;2.10;99.90;;;;;;12338815;28;20058;-85
2022/01/20 09:04:51;;;;;;;9.48;1.63;;;2.10;99.90;;;;;;12377234;28;20047;-85
2022/01/20 09:10:55;;;;;;;17.65;1.98;;;2.00;99.90;;;;;;12374477;28;20049;-86
2022/01/20 09:16:57;;;;;;;8.60;2.10;;;1.90;99.90;;;;;;12389118;28;20052;-85
2022/01/20 09:22:59;;;;;;;13.60;1.90;;;1.90;99.90;;;;;;12393722;28;20046;-85
2022/01/20 09:29:01;;;;;;;11.40;2.00;;;1.90;99.90;;;;;;12404979;28;20061;-85
2022/01/20 09:35:04;;;;;;;14.82;2.33;;;2.00;99.90;;;;;;12422858;28;20038;-87
2022/01/20 09:41:07;;;;;;;18.33;2.13;;;2.30;99.90;;;;;;12418913;28;20045;-87
2022/01/20 09:47:10;;;;;;;17.60;1.83;;;2.60;99.90;;;;;;12397055;28;20058;-87
2022/01/20 09:53:13;;;;;;;16.75;3.92;;;2.50;99.90;;;;;;12378295;28;20168;-87
2022/01/20 09:59:14;;;;;;;18.60;3.10;;;2.20;99.90;;;;;;12400883;28;20046;-87
2022/01/20 10:05:35;;;;;;;10.70;1.80;;;2.30;99.90;;;;;;12407494;28;20046;-86
2022/01/20 10:11:40;;;;;;;17.48;2.40;;;2.30;99.90;;;;;;12397336;28;20463;-86
2022/01/20 10:17:42;;;;;;;10.32;2.15;;;2.30;99.90;;;;;;12382554;28;20049;-86
2022/01/20 10:23:47;;;;;;;17.42;2.20;;;2.50;99.90;;;;;;12385779;28;20640;-85
2022/01/20 10:30:05;;;;;;;13.93;2.05;;;2.70;99.90;;;;;;12376864;28;20181;-86
2022/01/20 10:36:08;;;;;;;13.07;2.25;;;2.60;99.90;;;;;;12391325;28;20064;-87
2022/01/20 10:42:13;;;;;;;9.60;1.70;;;2.70;99.90;;;;;;12392402;28;20050;-87
2022/01/20 10:48:19;;;;;;;;;;;2.70;99.90;;;;;;12378668;28;20101;-87
2022/01/20 10:54:21;;;;;;;12.55;2.50;;;2.60;99.90;;;;;;12391275;28;19965;-85
2022/01/20 11:00:25;;;;;;;13.60;1.80;;;2.70;99.90;;;;;;12381123;28;20049;-86
2022/01/20 11:06:29;;;;;;;11.57;1.90;;;2.80;99.90;;;;;;12387865;28;20114;-85
2022/01/20 11:12:34;;;;;;;11.80;2.58;;;2.90;99.90;;;;;;12404731;28;20511;-85
2022/01/20 11:18:42;;;;;;;9.23;1.92;;;3.00;99.90;;;;;;12399443;28;20109;-88
2022/01/20 11:24:44;;;;;;;15.35;2.15;;;3.00;99.90;;;;;;12381824;28;20065;-85
2022/01/20 11:31:05;;;;;;;20.10;2.20;;;3.20;99.90;;;;;;12372687;28;20058;-86
2022/01/20 11:37:09;;;;;;;13.45;1.73;;;2.90;99.90;;;;;;12370910;28;20461;-86
2022/01/20 11:43:40;;;;;;;15.20;1.67;;;2.80;99.90;;;;;;12367829;28;20046;-87
2022/01/20 11:49:45;;;;;;;11.52;2.50;;;2.70;99.90;;;;;;12418360;28;20114;-86
2022/01/20 11:55:50;;;;;;;16.25;2.10;;;2.90;99.90;;;;;;12409993;28;20057;-86
2022/01/20 12:01:53;;;;;;;13.65;2.08;;;2.70;99.90;;;;;;12373976;28;20045;-85
2022/01/20 12:08:14;;;;;;;20.35;2.72;;;2.70;99.90;;;;;;12378078;28;20096;-85
2022/01/20 12:14:35;;;;;;;15.57;1.80;;;2.70;99.90;;;;;;12373781;28;20038;-86
2022/01/20 12:20:37;;;;;;;10.13;1.70;;;3.00;99.90;;;;;;12375816;28;20088;-86
2022/01/20 12:26:39;;;;;;;12.30;1.50;;;3.20;99.90;;;;;;12380977;28;20068;-85
2022/01/20 12:32:41;;;;;;;10.40;1.52;;;3.10;99.90;;;;;;12384495;28;20055;-85
2022/01/20 12:38:46;;;;;;;12.45;1.58;;;3.00;99.90;;;;;;12390560;28;20076;-84
2022/01/20 12:44:54;;;;;;;15.25;1.77;;;3.00;99.90;;;;;;12384389;28;20065;-85
2022/01/20 12:51:05;;;;;;;14.77;2.47;;;3.10;99.90;;;;;;12389426;28;20144;-87
2022/01/20 12:57:11;;;;;;;8.73;1.60;;;3.30;99.90;;;;;;12399632;28;20072;-84
2022/01/20 13:03:13;;;;;;;13.90;2.17;;;3.40;99.90;;;;;;12402552;28;20891;-86
2022/01/20 13:09:18;;;;;;;11.65;1.83;;;3.40;99.90;;;;;;12403902;28;20107;-86
2022/01/20 13:15:23;;;;;;;11.60;1.83;;;3.50;99.90;;;;;;12390149;28;20038;-86
2022/01/20 13:21:40;;;;;;;6.78;1.58;;;3.50;99.90;;;;;;12384444;28;20159;-85
2022/01/20 13:27:58;;;;;;;9.63;1.63;;;3.40;99.90;;;;;;12392720;28;20054;-85
2022/01/20 13:34:15;;;;;;;7.10;1.75;;;3.10;99.90;;;;;;12402824;28;20050;-86
2022/01/20 13:40:20;;;;;;;5.43;1.38;;;2.70;99.90;;;;;;12375211;28;20133;-84
2022/01/20 13:46:22;;;;;;;11.60;2.00;;;2.70;99.90;;;;;;12399454;28;20173;-85
2022/01/20 13:52:24;;;;;;;8.65;1.83;;;2.80;99.90;;;;;;12401472;28;20053;-85
2022/01/20 13:58:29;;;;;;;7.43;1.17;;;2.90;99.90;;;;;;12381382;28;20883;-88
2022/01/20 14:04:30;;;;;;;11.10;1.35;;;2.90;99.90;;;;;;12388233;28;20495;-86
2022/01/20 14:10:33;;;;;;;9.52;1.83;;;2.90;99.90;;;;;;12389507;28;20133;-86
2022/01/20 14:16:35;;;;;;;14.35;1.70;;;2.80;99.90;;;;;;12383622;28;20169;-86
2022/01/20 14:22:39;;;;;;;17.15;1.98;;;2.80;99.90;;;;;;12397087;28;20061;-87
2022/01/20 14:28:40;;;;;;;12.43;1.55;;;3.00;99.90;;;;;;12381004;28;20728;-86
2022/01/20 14:34:43;;;;;;;13.60;1.30;;;2.80;99.90;;;;;;12379608;28;20505;-88
2022/01/20 14:40:46;;;;;;;9.02;1.95;;;1.70;99.90;;;;;;12394546;28;20722;-85
2022/01/20 14:46:50;;;;;;;8.32;1.20;;;1.60;99.90;;;;;;12398332;28;20053;-86
2022/01/20 14:52:53;;;;;;;6.07;1.65;;;1.70;99.90;;;;;;12385297;28;20096;-87
2022/01/20 14:58:55;;;;;;;10.93;1.90;;;1.90;99.90;;;;;;12414016;28;20059;-86
2022/01/20 15:04:58;;;;;;;12.77;1.88;;;2.10;99.90;;;;;;12346790;28;23059;-86
2022/01/20 15:11:01;;;;;;;11.25;1.77;;;2.20;99.90;;;;;;12349860;28;20069;-88
2022/01/20 15:17:03;;;;;;;9.45;1.45;;;2.20;99.90;;;;;;12359344;28;20111;-86
2022/01/20 15:23:06;;;;;;;11.40;2.60;;;2.20;99.90;;;;;;12368343;28;20035;-86
2022/01/20 15:29:08;;;;;;;8.60;1.83;;;2.20;99.90;;;;;;12352668;28;20498;-88
2022/01/20 15:35:11;;;;;;;6.35;1.80;;;2.20;99.90;;;;;;12348009;28;20092;-87
2022/01/20 15:41:14;;;;;;;11.07;1.50;;;2.00;99.90;;;;;;12350758;28;20102;-85
2022/01/20 15:47:18;;;;;;;9.40;1.52;;;1.90;99.90;;;;;;12363242;28;20054;-85
2022/01/20 15:53:20;;;;;;;9.52;1.25;;;1.80;99.90;;;;;;12332902;28;20150;-87
2022/01/20 15:59:23;;;;;;;9.90;1.40;;;1.70;99.90;;;;;;12358661;28;20062;-87
2022/01/20 16:05:25;;;;;;;13.05;1.58;;;1.70;99.90;;;;;;12382039;28;20137;-85
2022/01/20 16:11:28;;;;;;;9.80;1.73;;;1.70;99.90;;;;;;12378541;28;20168;-85
2022/01/20 16:17:30;;;;;;;11.57;2.17;;;1.70;99.90;;;;;;12387681;28;20046;-86
2022/01/20 16:23:32;;;;;;;7.45;1.75;;;1.70;99.90;;;;;;12385802;28;20057;-85
2022/01/20 16:29:34;;;;;;;8.32;2.22;;;1.60;99.90;;;;;;12377135;28;20054;-85
2022/01/20 16:35:36;;;;;;;9.85;1.30;;;1.70;99.90;;;;;;12374811;28;20134;-86
2022/01/20 16:41:39;;;;;;;14.52;1.70;;;1.70;99.90;;;;;;12387048;28;20054;-87
2022/01/20 16:47:41;;;;;;;9.95;1.83;;;1.80;99.90;;;;;;12398673;28;20137;-85
2022/01/20 16:53:44;;;;;;;10.38;1.48;;;1.90;99.90;;;;;;12379975;28;20045;-85
2022/01/20 16:59:45;;;;;;;11.73;1.75;;;2.00;99.90;;;;;;12394049;28;20140;-85
2022/01/20 17:05:50;;;;;;;13.27;2.15;;;1.90;99.90;;;;;;12380451;28;20153;-86
2022/01/20 17:11:52;;;;;;;12.07;1.92;;;1.90;99.90;;;;;;12380672;28;20080;-85
2022/01/20 17:17:55;;;;;;;11.93;1.40;;;1.90;99.90;;;;;;12367772;28;20050;-86
2022/01/20 17:23:59;;;;;;;10.75;1.30;;;1.80;99.90;;;;;;12377763;28;20176;-85
2022/01/20 17:30:01;;;;;;;10.07;1.55;;;1.80;99.90;;;;;;12377545;28;20069;-88
2022/01/20 17:36:03;;;;;;;12.18;1.77;;;1.70;99.90;;;;;;12379127;28;20891;-85
2022/01/20 17:42:05;;;;;;;15.57;2.83;;;1.60;99.90;;;;;;12390871;28;20046;-86
2022/01/20 17:48:08;;;;;;;9.68;1.60;;;1.60;99.90;;;;;;12400476;28;20406;-85
2022/01/20 17:54:13;;;;;;;10.50;2.05;;;1.50;99.90;;;;;;12381850;28;20455;-85
2022/01/20 18:00:17;;;;;;;11.43;1.73;;;1.50;99.90;;;;;;12390368;28;20481;-87
2022/01/20 18:06:20;;;;;;;9.55;1.80;;;1.40;99.90;;;;;;12396093;28;20600;-85
2022/01/20 18:12:22;;;;;;;10.50;2.58;;;1.40;99.90;;;;;;12371290;28;20132;-85
2022/01/20 18:18:24;;;;;;;11.95;1.88;;;1.40;99.90;;;;;;12378282;28;20060;-85
2022/01/20 18:24:32;;;;;;;11.60;1.98;;;1.40;99.90;;;;;;12381709;28;20046;-86
2022/01/20 18:30:35;;;;;;;12.50;2.10;;;1.50;99.90;;;;;;12393206;28;20054;-86
2022/01/20 18:36:37;;;;;;;10.80;3.22;;;1.50;99.90;;;;;;12388636;28;20080;-85
2022/01/20 18:42:41;;;;;;;12.50;2.13;;;1.70;99.90;;;;;;12388952;28;20176;-86
2022/01/20 18:48:46;;;;;;;11.32;1.67;;;1.60;99.90;;;;;;12406456;28;20120;-85
2022/01/20 18:54:48;;;;;;;8.63;1.65;;;1.70;99.90;;;;;;12385141;28;20050;-85
2022/01/20 19:00:50;;;;;;;12.57;1.75;;;1.60;99.90;;;;;;12392293;28;20137;-87
2022/01/20 19:06:52;;;;;;;12.70;2.03;;;1.60;99.90;;;;;;12403924;28;20050;-85
2022/01/20 19:12:54;;;;;;;8.82;1.58;;;1.60;99.90;;;;;;12412728;28;20054;-89
2022/01/20 19:18:56;;;;;;;9.25;1.65;;;1.50;99.90;;;;;;12436843;28;20058;-85
2022/01/20 19:24:58;;;;;;;8.02;1.65;;;1.40;99.90;;;;;;12386795;28;20066;-86
2022/01/20 19:31:01;;;;;;;8.10;1.70;;;1.50;99.90;;;;;;12401434;28;20070;-85
2022/01/20 19:37:03;;;;;;;12.63;1.52;;;1.50;99.90;;;;;;12390494;28;20082;-87
2022/01/20 19:43:05;;;;;;;9.80;1.77;;;1.60;99.90;;;;;;12397566;28;20506;-86
2022/01/20 19:49:07;;;;;;;11.55;2.05;;;1.60;99.90;;;;;;12400617;28;20057;-85
2022/01/20 19:55:13;;;;;;;10.20;2.65;;;1.30;99.90;;;;;;12379872;28;20065;-85
2022/01/20 20:01:15;;;;;;;13.60;1.73;;;1.10;99.90;;;;;;12397812;28;20161;-85
2022/01/20 20:07:18;;;;;;;12.27;3.50;;;1.20;99.90;;;;;;12385213;28;20061;-87
2022/01/20 20:13:19;;;;;;;26.65;6.10;;;1.20;99.90;;;;;;12382823;28;20108;-87
2022/01/20 20:19:22;;;;;;;13.00;2.25;;;1.20;99.90;;;;;;12382232;28;20050;-87
2022/01/20 20:25:26;;;;;;;16.58;3.70;;;1.20;99.90;;;;;;12399780;28;20105;-86
2022/01/20 20:31:28;;;;;;;17.80;4.03;;;1.30;99.90;;;;;;12375102;28;20173;-85
2022/01/20 20:37:30;;;;;;;16.80;3.00;;;1.40;99.90;;;;;;12386954;28;20081;-85
2022/01/20 20:43:33;;;;;;;17.23;4.22;;;1.40;99.90;;;;;;12375696;28;20055;-87
2022/01/20 20:49:35;;;;;;;19.02;4.60;;;1.30;99.90;;;;;;12385710;28;20053;-86
2022/01/20 20:55:37;;;;;;;14.00;3.08;;;1.30;99.90;;;;;;12384669;28;20069;-87
2022/01/20 21:01:39;;;;;;;13.35;2.42;;;1.20;99.90;;;;;;12386877;28;20081;-85
2022/01/20 21:07:43;;;;;;;14.00;1.77;;;1.00;99.90;;;;;;12403246;28;20077;-87
2022/01/20 21:13:46;;;;;;;18.55;2.78;;;1.10;99.90;;;;;;12404030;28;20052;-86
2022/01/20 21:19:48;;;;;;;16.05;2.70;;;1.20;99.90;;;;;;12383528;28;20092;-86
2022/01/20 21:25:50;;;;;;;13.70;1.98;;;1.20;99.90;;;;;;12388355;28;20545;-86
2022/01/20 21:31:52;;;;;;;7.53;2.10;;;1.20;99.90;;;;;;12400768;28;20122;-85
2022/01/20 21:37:54;;;;;;;11.20;2.25;;;1.30;99.90;;;;;;12406458;28;20062;-85
2022/01/20 21:43:57;;;;;;;12.18;1.60;;;1.20;99.90;;;;;;12389963;28;20469;-85
2022/01/20 21:50:00;;;;;;;8.77;1.98;;;1.10;99.90;;;;;;12401676;28;20057;-86
2022/01/20 21:56:03;;;;;;;9.98;1.98;;;1.20;99.90;;;;;;12394315;28;20564;-85
2022/01/20 22:02:06;;;;;;;17.60;1.75;;;1.10;99.90;;;;;;12388130;28;20066;-85
2022/01/20 22:08:09;;;;;;;10.07;1.67;;;1.10;99.90;;;;;;12406915;28;20054;-87
2022/01/20 22:14:13;;;;;;;15.90;2.00;;;1.30;99.90;;;;;;12383713;28;20077;-85
2022/01/20 22:20:15;;;;;;;12.13;1.80;;;1.20;99.90;;;;;;12404970;28;20085;-86
2022/01/20 22:26:17;;;;;;;11.48;1.70;;;1.00;99.90;;;;;;12393988;28;20046;-85
2022/01/20 22:32:23;;;;;;;14.10;1.77;;;1.00;99.90;;;;;;12396298;28;20049;-85
2022/01/20 22:38:25;;;;;;;12.48;2.00;;;1.00;99.90;;;;;;12388885;28;20525;-87
2022/01/20 22:44:27;;;;;;;16.13;2.10;;;0.80;99.90;;;;;;12402056;28;20471;-86
2022/01/20 22:50:29;;;;;;;17.67;1.75;;;0.80;99.90;;;;;;12379832;28;20138;-84
2022/01/20 22:56:31;;;;;;;13.70;2.00;;;0.80;99.90;;;;;;12384898;28;20091;-86
2022/01/20 23:02:33;;;;;;;14.90;2.20;;;0.70;99.90;;;;;;12384637;28;20054;-84
2022/01/20 23:08:36;;;;;;;13.65;1.80;;;0.60;99.90;;;;;;12392683;28;20088;-85
2022/01/20 23:14:38;;;;;;;14.18;2.30;;;0.60;99.90;;;;;;12389070;28;20085;-86
2022/01/20 23:20:50;;;;;;;17.88;1.90;;;0.50;99.90;;;;;;12401372;28;20810;-85
2022/01/20 23:26:53;;;;;;;12.45;1.95;;;0.50;99.90;;;;;;12396261;28;20058;-85
2022/01/20 23:32:55;;;;;;;11.38;2.10;;;0.50;99.90;;;;;;12383867;28;20050;-85
2022/01/20 23:38:58;;;;;;;15.45;2.00;;;0.50;99.90;;;;;;12391132;28;20072;-85
2022/01/20 23:48:07;;;;;;;17.25;3.05;;;0.40;99.90;;;;;;12400826;28;20057;-85
2022/01/20 23:51:25;;;;;;;12.48;2.03;;;0.40;99.90;;;;;;12390322;28;20441;-84
2022/01/20 23:57:27;;;;;;;14.30;1.88;;;0.40;99.90;;;;;;12388973;28;20045;-85
